Time;durP1;ratioP1;P1;durP2;ratioP2;P2;SDS_P1;SDS_P2;PMS_P1;PMS_P2;Temp;Humidity;BMP_temperature;BMP_pressure;BME280_temperature;BME280_humidity;BME280_pressure;Samples;Min_cycle;Max_cycle;Signal;HPM_P1;HPM_P2
2023/09/16 00:01:06;;;;;;;;;4.00;4.00;;;;;22.26;49.67;100857.25;5071752;27;45528;-49
2023/09/16 00:03:35;;;;;;;;;4.00;4.00;;;;;22.23;49.91;100859.44;5086478;27;61101;-48
2023/09/16 00:06:00;;;;;;;;;3.67;3.67;;;;;22.21;49.32;100856.84;5092316;27;45518;-47
2023/09/16 00:08:26;;;;;;;;;4.33;3.33;;;;;22.20;49.47;100857.00;5076850;27;48064;-49
2023/09/16 00:10:51;;;;;;;;;5.00;5.00;;;;;22.18;49.75;100857.16;5088481;27;45265;-47
2023/09/16 00:13:16;;;;;;;;;5.00;5.00;;;;;22.17;49.66;100855.47;5080407;27;61311;-47
2023/09/16 00:15:48;;;;;;;;;3.00;3.00;;;;;22.16;49.79;100851.03;5078887;27;45424;-47
2023/09/16 00:18:15;;;;;;;;;5.00;3.33;;;;;22.14;49.64;100853.06;5074882;27;46320;-47
2023/09/16 00:20:41;;;;;;;;;2.67;2.67;;;;;22.13;49.75;100857.63;5087343;27;45343;-50
2023/09/16 00:23:06;;;;;;;;;4.25;4.25;;;;;22.10;49.86;100852.50;5076715;27;45503;-47
2023/09/16 00:25:32;;;;;;;;;5.00;5.00;;;;;22.08;50.13;100854.50;5088110;27;45688;-49
2023/09/16 00:27:58;;;;;;;;;5.00;4.00;;;;;22.07;50.03;100852.81;5084494;27;46088;-47
2023/09/16 00:30:23;;;;;;;;;3.33;3.00;;;;;22.04;50.02;100846.84;5090271;27;45343;-51
2023/09/16 00:32:48;;;;;;;;;4.00;4.00;;;;;22.03;50.21;100847.84;5088618;27;45346;-47
2023/09/16 00:35:14;;;;;;;;;6.00;4.00;;;;;21.97;50.58;100850.16;5059105;27;45341;-48
2023/09/16 00:37:41;;;;;;;;;3.33;3.33;;;;;21.94;50.36;100849.59;5093658;27;45419;-48
2023/09/16 00:40:07;;;;;;;;;4.33;4.33;;;;;21.90;50.51;100853.59;5076969;28;45938;-51
2023/09/16 00:42:37;;;;;;;;;4.50;3.25;;;;;21.88;50.51;100842.09;5085682;27;45551;-50
2023/09/16 00:45:04;;;;;;;;;6.00;4.67;;;;;21.86;50.42;100836.78;5083177;27;45315;-50
2023/09/16 00:47:29;;;;;;;;;4.00;4.00;;;;;21.84;50.99;100840.66;5086088;27;45389;-49
2023/09/16 00:49:55;;;;;;;;;6.00;6.00;;;;;21.83;50.70;100841.69;5079165;27;72848;-51
2023/09/16 00:52:20;;;;;;;;;6.00;4.00;;;;;21.81;50.48;100842.69;5093235;27;45270;-48
2023/09/16 00:54:50;;;;;;;;;4.00;4.00;;;;;21.79;50.88;100833.84;5067524;28;61451;-48
2023/09/16 00:57:15;;;;;;;;;6.33;4.33;;;;;21.77;50.94;100830.44;5084706;27;46093;-48
2023/09/16 00:59:41;;;;;;;;;4.00;4.00;;;;;21.74;50.85;100830.72;5087405;27;72304;-50
2023/09/16 01:02:08;;;;;;;;;5.00;5.00;;;;;21.73;50.95;100829.06;5087612;27;45690;-49
2023/09/16 01:04:34;;;;;;;;;6.00;6.00;;;;;21.71;51.09;100822.91;5086358;27;45594;-45
2023/09/16 01:07:01;;;;;;;;;1.67;1.00;;;;;21.68;51.33;100827.78;5073051;27;73567;-50
2023/09/16 01:09:26;;;;;;;;;5.67;4.67;;;;;21.65;51.31;100815.38;5076269;27;45608;-50
2023/09/16 01:11:52;;;;;;;;;7.67;7.67;;;;;21.62;51.59;100821.09;5083254;27;66290;-48
2023/09/16 01:14:17;;;;;;;;;6.00;4.67;;;;;21.58;51.88;100815.13;5080394;27;68022;-50
2023/09/16 01:16:48;;;;;;;;;4.00;4.00;;;;;21.57;51.50;100815.28;5080753;27;46243;-46
2023/09/16 01:19:35;;;;;;;;;5.00;5.00;;;;;21.54;51.84;100815.56;5077487;27;45333;-48
2023/09/16 01:22:01;;;;;;;;;4.00;4.00;;;;;21.53;51.71;100821.97;5087028;27;45453;-48
2023/09/16 01:24:26;;;;;;;;;5.00;5.00;;;;;21.49;51.60;100824.09;5065601;27;46174;-49
2023/09/16 01:26:51;;;;;;;;;4.00;4.00;;;;;21.48;52.11;100819.69;5089397;27;46170;-49
2023/09/16 01:29:18;;;;;;;;;5.67;5.33;;;;;21.47;52.04;100815.28;5093775;27;45390;-46
2023/09/16 01:31:45;;;;;;;;;5.33;5.00;;;;;21.46;51.90;100816.31;5089785;27;45450;-46
2023/09/16 01:34:23;;;;;;;;;4.67;4.67;;;;;21.44;52.14;100812.88;5073870;27;46379;-48
2023/09/16 01:36:52;;;;;;;;;9.33;6.67;;;;;21.43;52.31;100811.16;5082793;27;46507;-50
2023/09/16 01:39:21;;;;;;;;;3.33;3.33;;;;;21.42;52.31;100814.88;5087323;27;45478;-46
2023/09/16 01:41:48;;;;;;;;;6.00;4.00;;;;;21.40;52.65;100806.91;5088574;27;45309;-50
2023/09/16 01:44:14;;;;;;;;;4.33;4.33;;;;;21.39;52.99;100813.31;5082588;27;45319;-48
2023/09/16 01:46:39;;;;;;;;;5.33;4.33;;;;;21.38;52.51;100817.03;5070629;28;70666;-47
2023/09/16 01:49:05;;;;;;;;;5.00;5.00;;;;;21.37;52.78;100818.03;5094594;27;45351;-49
2023/09/16 01:51:30;;;;;;;;;5.00;5.00;;;;;21.35;52.61;100814.59;5087558;27;55319;-48
2023/09/16 01:53:55;;;;;;;;;4.67;4.67;;;;;21.35;52.85;100808.34;5084369;27;57502;-48
2023/09/16 01:56:21;;;;;;;;;5.33;5.00;;;;;21.34;52.44;100806.63;5080866;27;71685;-50
2023/09/16 01:58:46;;;;;;;;;7.00;5.00;;;;;21.30;53.14;100809.66;5081137;27;70149;-50
2023/09/16 02:01:11;;;;;;;;;8.67;7.00;;;;;21.29;53.02;100807.94;5086131;27;63713;-49
2023/09/16 02:03:37;;;;;;;;;6.00;4.33;;;;;21.28;53.34;100808.09;5084751;27;45300;-49
2023/09/16 02:06:04;;;;;;;;;4.00;4.00;;;;;21.27;53.58;100804.50;5088342;27;45478;-51
2023/09/16 02:08:30;;;;;;;;;4.00;4.00;;;;;21.27;53.02;100796.41;5068847;27;46787;-50
2023/09/16 02:10:55;;;;;;;;;6.00;6.00;;;;;21.26;53.10;100793.84;5083154;27;58509;-49
2023/09/16 02:13:20;;;;;;;;;6.00;6.00;;;;;21.24;53.23;100795.88;5063785;27;68227;-49
2023/09/16 02:15:46;;;;;;;;;6.33;4.33;;;;;21.22;53.76;100793.28;5090943;27;70503;-49
2023/09/16 02:18:12;;;;;;;;;4.00;4.00;;;;;21.20;53.59;100778.19;5087712;27;69404;-50
2023/09/16 02:20:37;;;;;;;;;3.67;3.67;;;;;21.17;53.38;100787.47;5093552;27;45643;-51
2023/09/16 02:23:03;;;;;;;;;4.33;4.00;;;;;21.15;53.46;100793.03;5085973;27;67108;-48
2023/09/16 02:25:28;;;;;;;;;5.00;3.67;;;;;21.15;53.57;100787.59;5083077;27;64972;-47
2023/09/16 02:27:53;;;;;;;;;2.00;2.00;;;;;21.15;53.77;100787.59;5086658;27;71730;-47
2023/09/16 02:30:19;;;;;;;;;3.33;3.33;;;;;21.14;53.92;100785.06;5091366;27;67271;-48
2023/09/16 02:32:44;;;;;;;;;6.67;5.00;;;;;21.13;53.70;100784.22;5086176;27;45367;-47
2023/09/16 02:35:10;;;;;;;;;4.33;4.33;;;;;21.13;54.19;100783.34;5088789;27;46105;-49
2023/09/16 02:37:35;;;;;;;;;2.67;2.67;;;;;21.12;53.60;100773.56;5085880;27;46215;-49
2023/09/16 02:40:02;;;;;;;;;4.33;4.00;;;;;21.11;53.59;100774.53;5088926;27;45529;-48
2023/09/16 02:42:27;;;;;;;;;6.33;5.33;;;;;21.11;54.24;100775.38;5064026;27;45533;-49
2023/09/16 02:44:53;;;;;;;;;4.00;4.00;;;;;21.08;53.77;100754.06;5093012;27;45436;-47
2023/09/16 02:47:20;;;;;;;;;7.00;6.00;;;;;21.06;54.18;100763.31;5087585;27;45586;-47
2023/09/16 02:49:45;;;;;;;;;4.33;4.00;;;;;21.04;54.60;100765.28;5086142;27;45452;-48
2023/09/16 02:52:10;;;;;;;;;6.67;4.67;;;;;21.00;54.80;100770.13;5083632;27;45515;-47
2023/09/16 02:54:36;;;;;;;;;4.00;4.00;;;;;20.97;54.31;100771.28;5085148;27;74437;-51
2023/09/16 02:57:01;;;;;;;;;4.00;4.00;;;;;20.96;54.45;100782.25;5088433;27;45556;-48
2023/09/16 02:59:27;;;;;;;;;8.00;5.67;;;;;20.95;54.48;100772.41;5087864;27;45256;-47
2023/09/16 03:01:52;;;;;;;;;6.67;6.67;;;;;20.94;54.78;100770.75;5078718;27;45397;-52
2023/09/16 03:04:17;;;;;;;;;7.67;5.00;;;;;20.93;54.94;100774.44;5080679;27;46103;-49
2023/09/16 03:06:43;;;;;;;;;7.33;5.00;;;;;20.88;54.87;100772.16;5085066;27;56263;-48
2023/09/16 03:09:08;;;;;;;;;4.00;4.00;;;;;20.83;54.95;100771.72;5080860;27;53838;-48
2023/09/16 03:11:36;;;;;;;;;5.33;5.00;;;;;20.78;54.91;100764.06;5083857;27;45425;-47
2023/09/16 03:14:02;;;;;;;;;4.33;4.33;;;;;20.77;55.68;100756.13;5083022;27;47140;-48
2023/09/16 03:16:27;;;;;;;;;4.00;4.00;;;;;20.73;55.58;100771.75;5090510;27;45337;-47
2023/09/16 03:18:52;;;;;;;;;3.00;3.00;;;;;20.71;55.85;100767.50;5092904;27;66844;-49
2023/09/16 03:21:19;;;;;;;;;5.33;5.00;;;;;20.69;55.84;100767.63;5091991;27;46815;-47
2023/09/16 03:23:45;;;;;;;;;3.00;2.67;;;;;20.66;55.78;100763.34;5089564;27;45524;-49
2023/09/16 03:26:11;;;;;;;;;4.00;3.00;;;;;20.63;55.61;100771.72;5084997;27;45544;-50
2023/09/16 03:28:41;;;;;;;;;5.00;5.00;;;;;20.63;55.76;100771.72;5083355;27;45286;-48
2023/09/16 03:31:07;;;;;;;;;5.00;5.00;;;;;20.63;55.95;100763.63;5085577;27;45714;-49
2023/09/16 03:33:32;;;;;;;;;4.00;4.00;;;;;20.61;56.26;100762.06;5086920;27;46966;-50
2023/09/16 03:35:58;;;;;;;;;5.00;5.00;;;;;20.62;55.87;100758.34;5084957;27;45468;-50
2023/09/16 03:38:29;;;;;;;;;6.33;4.67;;;;;20.61;55.90;100756.66;5086815;27;45501;-51
2023/09/16 03:40:54;;;;;;;;;4.00;4.00;;;;;20.59;56.52;100747.84;5082936;27;45527;-49
2023/09/16 03:43:20;;;;;;;;;5.67;5.33;;;;;20.59;56.65;100745.16;5082881;27;46386;-51
2023/09/16 03:45:45;;;;;;;;;5.00;5.00;;;;;20.55;56.91;100747.28;5082803;27;45479;-51
2023/09/16 03:48:10;;;;;;;;;6.00;6.00;;;;;20.54;56.55;100736.63;5070723;27;68020;-51
2023/09/16 03:50:35;;;;;;;;;3.33;3.00;;;;;20.52;57.18;100739.47;5083521;27;67319;-51
2023/09/16 03:53:01;;;;;;;;;4.00;4.00;;;;;20.49;56.61;100739.72;5080780;27;73728;-52
2023/09/16 03:55:26;;;;;;;;;7.67;7.33;;;;;20.47;56.81;100744.44;5082544;27;45519;-50
2023/09/16 03:57:52;;;;;;;;;10.67;8.33;;;;;20.44;56.92;100742.00;5083077;27;50346;-50
2023/09/16 04:00:17;;;;;;;;;14.00;12.33;;;;;20.42;57.31;100744.03;5089710;27;69022;-49
2023/09/16 04:02:42;;;;;;;;;15.00;13.00;;;;;20.36;56.85;100758.94;5089276;27;64765;-45
2023/09/16 04:05:08;;;;;;;;;18.67;15.00;;;;;20.34;56.90;100752.81;5085206;27;70318;-48
2023/09/16 04:07:34;;;;;;;;;16.67;15.33;;;;;20.32;57.54;100742.19;5067762;27;45536;-47
2023/09/16 04:09:59;;;;;;;;;14.33;13.00;;;;;20.31;57.25;100745.88;5095755;27;45569;-50
2023/09/16 04:12:26;;;;;;;;;17.33;13.00;;;;;20.29;57.43;100734.34;5090270;27;64125;-46
2023/09/16 04:14:51;;;;;;;;;13.67;13.00;;;;;20.28;57.53;100742.59;5085776;27;45358;-48
2023/09/16 04:17:17;;;;;;;;;18.00;14.33;;;;;20.19;57.58;100738.03;5084488;27;62766;-50
2023/09/16 04:19:42;;;;;;;;;18.00;13.00;;;;;20.16;57.88;100731.06;5072740;27;45371;-48
2023/09/16 04:22:08;;;;;;;;;16.33;14.00;;;;;20.14;58.62;100730.34;5090451;27;70246;-47
2023/09/16 04:24:33;;;;;;;;;16.00;14.33;;;;;20.12;58.03;100726.94;5088866;27;71735;-47
2023/09/16 04:26:58;;;;;;;;;12.67;12.00;;;;;20.08;58.54;100720.97;5085684;27;66843;-50
2023/09/16 04:29:24;;;;;;;;;7.33;3.67;;;;;20.07;58.61;100721.13;5086772;27;45268;-48
2023/09/16 04:31:51;;;;;;;;;13.67;12.67;;;;;20.04;58.28;100722.25;5091788;27;75461;-47
2023/09/16 04:34:16;;;;;;;;;14.00;13.33;;;;;20.04;59.32;100726.78;5095073;27;45461;-48
2023/09/16 04:36:41;;;;;;;;;14.00;11.33;;;;;20.00;58.89;100729.78;5093316;27;57414;-49
2023/09/16 04:39:08;;;;;;;;;11.00;10.33;;;;;19.98;59.23;100726.34;5094817;27;45398;-52
2023/09/16 04:41:34;;;;;;;;;10.67;10.33;;;;;19.95;58.82;100725.78;5089441;27;45370;-50
2023/09/16 04:43:59;;;;;;;;;11.00;11.00;;;;;19.92;58.65;100724.22;5094780;27;45416;-48
2023/09/16 04:46:24;;;;;;;;;9.00;8.33;;;;;19.91;58.81;100714.41;5089574;27;45716;-48
2023/09/16 04:48:50;;;;;;;;;9.33;7.00;;;;;19.89;58.94;100713.69;5089275;27;70065;-50
2023/09/16 04:51:15;;;;;;;;;12.00;9.00;;;;;19.87;59.35;100721.09;5081911;27;45996;-49
2023/09/16 04:53:41;;;;;;;;;8.00;6.00;;;;;19.86;59.33;100729.34;5099214;27;64864;-49
2023/09/16 04:56:06;;;;;;;;;8.33;7.33;;;;;19.80;59.01;100718.06;5096340;27;47389;-49
2023/09/16 04:58:32;;;;;;;;;7.67;6.67;;;;;19.81;59.74;100729.69;5088723;27;45506;-46
2023/09/16 05:01:00;;;;;;;;;7.00;7.00;;;;;19.80;59.22;100730.69;5081949;27;46143;-46
2023/09/16 05:03:26;;;;;;;;;8.00;6.67;;;;;19.79;59.99;100731.66;5076977;27;45488;-47
2023/09/16 05:05:52;;;;;;;;;6.00;6.00;;;;;19.78;59.65;100725.44;5084737;27;45473;-47
2023/09/16 05:08:17;;;;;;;;;8.00;6.33;;;;;19.78;60.10;100738.09;5083690;27;46735;-48
2023/09/16 05:10:43;;;;;;;;;7.00;7.00;;;;;19.77;59.83;100739.06;5080536;27;67990;-50
2023/09/16 05:13:08;;;;;;;;;7.67;7.67;;;;;19.75;60.43;100743.75;5088224;27;45589;-52
2023/09/16 05:15:33;;;;;;;;;10.00;7.00;;;;;19.72;60.40;100736.78;5086846;27;45480;-48
2023/09/16 05:17:59;;;;;;;;;6.00;6.00;;;;;19.72;60.07;100739.47;5085642;27;60146;-48
2023/09/16 05:20:24;;;;;;;;;8.00;6.33;;;;;19.73;60.62;100740.34;5089179;27;73147;-49
2023/09/16 05:22:50;;;;;;;;;7.67;6.33;;;;;19.71;60.70;100740.50;5083709;27;45341;-48
2023/09/16 05:25:16;;;;;;;;;5.33;5.33;;;;;19.69;60.40;100744.31;5084716;27;65296;-47
2023/09/16 05:27:41;;;;;;;;;6.00;5.00;;;;;19.66;60.34;100746.28;5064727;27;46979;-48
2023/09/16 05:30:07;;;;;;;;;5.00;4.00;;;;;19.64;60.33;100755.50;5081921;27;45394;-47
2023/09/16 05:32:32;;;;;;;;;7.00;5.67;;;;;19.62;60.97;100760.16;5084971;27;45499;-47
2023/09/16 05:34:58;;;;;;;;;7.00;5.33;;;;;19.61;60.72;100753.94;5088983;27;60712;-48
2023/09/16 05:37:23;;;;;;;;;5.33;5.33;;;;;19.62;60.80;100755.66;5082638;27;45286;-49
2023/09/16 05:39:49;;;;;;;;;6.00;6.00;;;;;19.64;60.82;100752.81;5090956;27;68510;-46
2023/09/16 05:42:14;;;;;;;;;6.67;5.00;;;;;19.63;61.01;100746.56;5091162;27;71745;-47
2023/09/16 05:44:39;;;;;;;;;5.33;5.33;;;;;19.65;61.17;100758.06;5087840;27;45185;-46
2023/09/16 05:47:05;;;;;;;;;7.67;5.67;;;;;19.66;60.55;100767.88;5088206;27;70178;-47
2023/09/16 05:49:31;;;;;;;;;5.00;5.00;;;;;19.66;60.66;100758.94;5092671;27;45418;-45
2023/09/16 05:51:56;;;;;;;;;7.00;6.00;;;;;19.69;60.46;100761.34;5072977;27;49363;-47
2023/09/16 05:54:21;;;;;;;;;5.67;5.67;;;;;19.72;60.76;100766.44;5087276;27;45631;-47
2023/09/16 05:56:46;;;;;;;;;7.33;7.00;;;;;19.74;60.89;100769.03;5089636;27;62350;-47
2023/09/16 05:59:14;;;;;;;;;9.00;6.33;;;;;19.77;60.99;100763.34;5076357;27;46642;-49
2023/09/16 06:01:39;;;;;;;;;8.67;7.33;;;;;19.79;61.25;100767.63;5094650;27;45944;-51
2023/09/16 06:04:04;;;;;;;;;6.33;5.00;;;;;19.84;60.79;100767.22;5083468;27;64814;-50
2023/09/16 06:06:30;;;;;;;;;6.67;6.67;;;;;19.89;60.66;100773.06;5083960;27;45612;-47
2023/09/16 06:08:56;;;;;;;;;5.67;5.00;;;;;19.95;60.69;100767.13;5094817;27;65260;-45
2023/09/16 06:11:26;;;;;;;;;6.67;6.67;;;;;20.04;61.08;100770.84;5075163;27;45518;-48
2023/09/16 06:13:52;;;;;;;;;6.00;4.33;;;;;20.14;60.59;100779.81;5086933;27;45395;-50
2023/09/16 06:16:17;;;;;;;;;6.33;5.00;;;;;20.24;60.16;100773.56;5080784;27;45484;-47
2023/09/16 06:18:42;;;;;;;;;7.00;7.00;;;;;20.35;60.20;100781.56;5089246;27;70924;-48
2023/09/16 06:21:08;;;;;;;;;8.00;7.00;;;;;20.46;59.16;100781.41;5088109;27;45414;-47
2023/09/16 06:23:33;;;;;;;;;8.00;8.00;;;;;20.59;59.30;100786.50;5087639;27;45432;-48
2023/09/16 06:25:59;;;;;;;;;5.33;3.67;;;;;20.74;59.03;100784.28;5069223;27;45546;-49
2023/09/16 06:28:24;;;;;;;;;8.00;8.00;;;;;20.92;59.22;100784.38;5090906;27;46123;-48
2023/09/16 06:30:49;;;;;;;;;7.00;6.00;;;;;21.11;58.98;100785.34;5085063;27;71482;-48
2023/09/16 06:33:14;;;;;;;;;7.33;6.00;;;;;21.38;58.39;100783.69;5094795;27;68167;-47
2023/09/16 06:35:40;;;;;;;;;6.00;6.00;;;;;21.98;57.38;100788.75;5075730;27;45458;-49
2023/09/16 06:38:05;;;;;;;;;8.33;6.00;;;;;23.45;55.72;100788.34;5083359;27;73417;-49
2023/09/16 06:40:30;;;;;;;;;7.00;6.00;;;;;25.13;52.93;100789.38;5085541;27;72044;-49
2023/09/16 06:42:56;;;;;;;;;6.33;5.00;;;;;26.42;50.47;100792.78;5083495;27;45319;-50
2023/09/16 06:45:21;;;;;;;;;8.00;7.00;;;;;27.30;48.28;100793.25;5084489;27;45442;-47
2023/09/16 06:47:46;;;;;;;;;9.33;7.67;;;;;28.27;45.56;100796.84;5094300;27;71560;-50
2023/09/16 06:50:12;;;;;;;;;5.67;5.00;;;;;28.90;43.95;100796.19;5084123;27;54235;-47
2023/09/16 06:52:38;;;;;;;;;7.00;7.00;;;;;29.34;43.18;100800.56;5084920;27;45415;-48
2023/09/16 06:55:04;;;;;;;;;9.00;7.67;;;;;29.15;42.11;100802.09;5078713;27;45618;-47
2023/09/16 06:57:30;;;;;;;;;8.33;7.00;;;;;28.33;42.80;100800.69;5082488;27;46357;-49
2023/09/16 06:59:55;;;;;;;;;5.67;5.67;;;;;27.39;43.13;100785.81;5068030;27;45359;-50
2023/09/16 07:02:22;;;;;;;;;7.67;7.67;;;;;26.56;44.07;100788.44;5094382;27;45332;-49
2023/09/16 07:04:48;;;;;;;;;6.67;6.67;;;;;25.86;45.30;100784.75;5091100;27;45560;-51
2023/09/16 07:07:13;;;;;;;;;6.33;6.33;;;;;25.31;46.11;100787.28;5096310;27;45591;-49
2023/09/16 07:09:39;;;;;;;;;11.00;9.00;;;;;24.87;46.76;100780.38;5094375;27;45561;-51
2023/09/16 07:12:06;;;;;;;;;9.00;7.00;;;;;24.51;48.15;100779.84;5085334;27;60062;-50
2023/09/16 07:14:31;;;;;;;;;6.33;5.67;;;;;24.18;48.65;100787.97;5093698;27;45553;-48
2023/09/16 07:16:57;;;;;;;;;8.00;7.00;;;;;23.86;49.13;100784.94;5087227;27;45748;-47
2023/09/16 07:19:22;;;;;;;;;10.00;9.67;;;;;23.64;49.95;100786.38;5093767;27;45482;-48
2023/09/16 07:21:47;;;;;;;;;11.67;10.00;;;;;23.46;50.29;100781.03;5091134;27;46974;-49
2023/09/16 07:24:13;;;;;;;;;7.00;7.00;;;;;23.31;50.67;100788.06;5097181;27;68408;-47
2023/09/16 07:26:38;;;;;;;;;9.67;9.00;;;;;23.21;51.03;100780.06;5090285;27;46959;-47
2023/09/16 07:29:03;;;;;;;;;11.00;10.00;;;;;23.13;51.10;100775.41;5092360;27;45391;-49
2023/09/16 07:31:29;;;;;;;;;6.00;6.00;;;;;23.07;51.08;100773.31;5092252;27;62157;-48
2023/09/16 07:33:54;;;;;;;;;7.67;6.67;;;;;23.07;51.47;100770.59;5077894;27;69296;-47
2023/09/16 07:36:20;;;;;;;;;9.00;8.00;;;;;23.09;51.62;100783.00;5088300;27;45500;-46
2023/09/16 07:38:45;;;;;;;;;8.00;8.00;;;;;23.11;51.73;100777.41;5083911;27;45984;-47
2023/09/16 07:41:10;;;;;;;;;9.00;9.00;;;;;23.11;51.93;100781.00;5083171;27;46534;-49
2023/09/16 07:43:36;;;;;;;;;10.33;9.33;;;;;23.13;52.54;100791.66;5075386;27;45368;-47
2023/09/16 07:46:02;;;;;;;;;7.00;7.00;;;;;23.16;52.13;100791.38;5074353;27;46173;-49
2023/09/16 07:48:27;;;;;;;;;8.67;7.00;;;;;23.22;52.08;100789.88;5071819;27;45348;-50
2023/09/16 07:50:54;;;;;;;;;10.33;8.00;;;;;23.23;52.00;100789.75;5080468;27;45419;-46
2023/09/16 07:53:20;;;;;;;;;3.00;3.00;;;;;23.26;52.34;100796.72;5089363;27;45471;-48
2023/09/16 07:55:45;;;;;;;;;6.33;6.33;;;;;23.29;52.55;100799.09;5094946;27;45535;-48
2023/09/16 07:58:10;;;;;;;;;8.33;8.33;;;;;23.33;52.57;100797.75;5093763;27;66121;-47
2023/09/16 08:00:36;;;;;;;;;9.00;7.67;;;;;23.39;52.21;100799.00;5086555;27;67608;-47
2023/09/16 08:03:01;;;;;;;;;9.33;8.00;;;;;23.41;52.28;100803.25;5085585;27;45449;-48
2023/09/16 08:05:27;;;;;;;;;9.67;9.67;;;;;23.47;52.13;100799.03;5084521;27;67766;-49
2023/09/16 08:07:52;;;;;;;;;9.00;9.00;;;;;23.54;52.22;100800.06;5094168;27;45173;-48
2023/09/16 08:10:18;;;;;;;;;8.33;8.33;;;;;23.61;52.30;100800.31;5093447;27;65627;-46
2023/09/16 08:12:43;;;;;;;;;9.00;9.00;;;;;23.66;51.79;100800.63;5094705;27;45532;-47
2023/09/16 08:15:09;;;;;;;;;9.00;8.33;;;;;23.73;52.22;100795.44;5098176;27;49747;-58
2023/09/16 08:17:35;;;;;;;;;8.00;7.67;;;;;23.75;52.42;100794.25;5096408;27;45427;-46
2023/09/16 08:20:00;;;;;;;;;10.00;10.00;;;;;23.78;51.54;100795.78;5086159;27;46675;-49
2023/09/16 08:22:28;;;;;;;;;10.00;9.33;;;;;23.78;51.86;100795.78;5074504;27;64262;-49
2023/09/16 08:24:53;;;;;;;;;8.00;8.00;;;;;23.83;51.86;100804.31;5076038;27;45512;-52
2023/09/16 08:27:20;;;;;;;;;11.00;9.00;;;;;23.85;51.51;100810.41;5090767;27;46725;-52
2023/09/16 08:29:46;;;;;;;;;11.33;10.33;;;;;23.81;51.80;100811.75;5075004;27;45597;-52
2023/09/16 08:32:11;;;;;;;;;9.67;9.67;;;;;23.83;51.47;100808.84;5087580;27;45480;-50
2023/09/16 08:34:36;;;;;;;;;10.67;10.33;;;;;23.88;52.11;100804.63;5089293;27;46095;-48
2023/09/16 08:37:02;;;;;;;;;9.67;8.00;;;;;23.98;51.93;100792.84;5089692;27;45390;-47
2023/09/16 08:39:27;;;;;;;;;7.67;7.67;;;;;24.10;51.92;100799.66;5093209;27;45703;-51
2023/09/16 08:42:13;;;;;;;;;13.67;9.00;;;;;24.27;51.27;100798.69;5080906;27;65752;-52
2023/09/16 08:44:44;;;;;;;;;8.00;8.00;;;;;24.46;51.05;100796.69;5093604;27;45507;-51
2023/09/16 08:47:14;;;;;;;;;8.33;8.33;;;;;24.60;50.89;100804.16;5086347;27;45410;-51
2023/09/16 08:49:43;;;;;;;;;13.67;10.67;;;;;24.74;50.93;100794.53;5096245;27;45375;-51
2023/09/16 08:52:10;;;;;;;;;12.00;12.00;;;;;24.84;50.73;100799.78;5087105;27;45410;-51
2023/09/16 08:54:37;;;;;;;;;11.67;10.67;;;;;24.91;50.06;100787.22;5087377;27;46978;-51
2023/09/16 08:57:03;;;;;;;;;10.00;9.00;;;;;25.08;50.04;100796.19;5068246;28;63885;-51
2023/09/16 08:59:29;;;;;;;;;10.00;8.00;;;;;25.21;50.15;100801.09;5063932;27;45543;-49
2023/09/16 09:01:54;;;;;;;;;12.67;10.33;;;;;25.37;49.43;100796.66;5090287;27;45447;-48
2023/09/16 09:04:20;;;;;;;;;10.67;9.00;;;;;25.52;49.40;100792.19;5087305;27;73866;-48
2023/09/16 09:06:45;;;;;;;;;10.00;10.00;;;;;25.70;49.16;100791.13;5096888;27;45267;-51
2023/09/16 09:09:11;;;;;;;;;12.33;9.00;;;;;26.20;49.60;100786.28;5085432;27;65135;-50
2023/09/16 09:11:37;;;;;;;;;14.33;12.67;;;;;27.60;47.26;100784.22;5087369;27;45456;-51
2023/09/16 09:14:03;;;;;;;;;11.00;9.67;;;;;29.16;44.64;100784.59;5084232;27;55057;-50
2023/09/16 09:16:29;;;;;;;;;10.33;10.33;;;;;30.84;42.50;100786.09;5087061;27;45651;-52
2023/09/16 09:18:56;;;;;;;;;11.33;10.00;;;;;32.54;39.93;100793.59;5072894;27;68349;-49
2023/09/16 09:21:21;;;;;;;;;8.00;8.00;;;;;33.61;36.32;100787.13;5083713;27;45486;-53
2023/09/16 09:23:47;;;;;;;;;10.33;8.67;;;;;33.92;36.61;100788.06;5082850;27;46115;-52
2023/09/16 09:26:12;;;;;;;;;10.75;10.75;;;;;34.63;35.15;100788.31;5083918;27;71436;-51
2023/09/16 09:28:37;;;;;;;;;12.00;12.00;;;;;35.36;32.70;100793.66;5092121;27;54586;-52
2023/09/16 09:31:03;;;;;;;;;10.75;10.75;;;;;35.72;33.11;100786.16;5080176;27;62872;-52
2023/09/16 09:33:29;;;;;;;;;10.00;9.00;;;;;36.22;30.91;100802.09;5063612;27;45240;-51
2023/09/16 09:36:11;;;;;;;;;10.75;10.75;;;;;36.53;32.41;100799.94;5074280;27;45392;-50
2023/09/16 09:38:45;;;;;;;;;11.75;11.75;;;;;36.78;31.15;100807.00;5067843;27;45829;-49
2023/09/16 09:41:10;;;;;;;;;11.00;8.75;;;;;37.01;30.37;100802.38;5086671;27;45782;-48
2023/09/16 09:43:36;;;;;;;;;11.25;11.00;;;;;37.06;30.23;100794.16;5084247;27;74524;-50
2023/09/16 09:46:02;;;;;;;;;10.25;8.75;;;;;36.98;30.62;100784.31;5080982;27;45467;-46
2023/09/16 09:48:29;;;;;;;;;8.25;7.50;;;;;36.90;29.67;100787.53;5079911;27;45347;-51
2023/09/16 09:50:54;;;;;;;;;7.50;7.50;;;;;36.71;30.08;100782.22;5081483;27;45654;-51
2023/09/16 09:53:22;;;;;;;;;9.75;7.25;;;;;36.44;30.37;100779.28;5064041;27;74490;-49
2023/09/16 09:55:48;;;;;;;;;9.25;8.25;;;;;35.96;31.35;100784.19;5080864;27;45379;-52
2023/09/16 09:58:13;;;;;;;;;9.00;8.75;;;;;35.09;30.91;100786.69;5065180;27;63036;-51
2023/09/16 10:00:47;;;;;;;;;5.50;5.50;;;;;34.25;32.10;100778.47;5084020;27;67689;-50
2023/09/16 10:03:13;;;;;;;;;6.00;6.00;;;;;33.60;33.01;100778.03;5078915;27;46382;-49
2023/09/16 10:05:38;;;;;;;;;7.25;7.00;;;;;33.18;34.00;100782.50;5088994;27;45327;-50
2023/09/16 10:08:04;;;;;;;;;8.75;8.75;;;;;32.86;34.11;100779.84;5089243;27;66834;-48
2023/09/16 10:10:30;;;;;;;;;11.75;8.00;;;;;32.77;34.21;100785.63;5068492;27;45667;-50
2023/09/16 10:12:57;;;;;;;;;6.25;6.25;;;;;32.65;34.55;100776.38;5090661;27;46009;-49
2023/09/16 10:15:37;;;;;;;;;7.25;7.00;;;;;32.64;35.09;100775.53;5063946;27;45686;-52
2023/09/16 10:18:03;;;;;;;;;7.75;7.75;;;;;32.75;34.73;100771.25;5064492;27;45361;-50
2023/09/16 10:20:30;;;;;;;;;9.00;8.50;;;;;32.91;34.72;100777.25;5081228;27;45532;-50
2023/09/16 10:22:57;;;;;;;;;4.25;2.75;;;;;33.06;34.87;100772.22;5085659;27;46235;-51
2023/09/16 10:25:22;;;;;;;;;6.75;6.75;;;;;32.97;34.02;100771.69;5068445;27;45459;-51
2023/09/16 10:27:50;;;;;;;;;7.25;7.25;;;;;32.72;34.53;100768.94;5071715;27;65731;-52
2023/09/16 10:30:17;;;;;;;;;11.50;7.50;;;;;32.49;34.85;100767.59;5090917;27;45311;-51
2023/09/16 10:32:43;;;;;;;;;12.75;11.25;;;;;32.33;35.15;100770.88;5091077;27;46054;-51
2023/09/16 10:35:09;;;;;;;;;7.00;5.75;;;;;32.09;35.08;100770.59;5069968;27;45541;-52
2023/09/16 10:37:36;;;;;;;;;16.25;8.00;;;;;31.96;35.50;100773.41;5081881;27;46570;-49
2023/09/16 10:40:04;;;;;;;;;8.25;7.00;;;;;31.86;35.95;100767.53;5094332;27;45430;-50
2023/09/16 10:42:32;;;;;;;;;6.50;6.50;;;;;31.81;35.86;100771.78;5083682;27;46222;-52
2023/09/16 10:45:01;;;;;;;;;9.50;9.50;;;;;31.83;35.65;100777.06;5081230;27;45395;-49
2023/09/16 10:47:27;;;;;;;;;8.00;7.25;;;;;31.77;35.86;100780.69;5079637;27;45385;-51
2023/09/16 10:49:53;;;;;;;;;8.00;8.00;;;;;31.71;36.16;100785.16;5094738;27;45417;-50
2023/09/16 10:52:21;;;;;;;;;11.00;7.50;;;;;31.62;36.26;100780.97;5081058;27;45978;-51
2023/09/16 10:54:57;;;;;;;;;9.00;9.00;;;;;31.53;36.82;100776.75;5078707;27;45347;-52
2023/09/16 10:57:32;;;;;;;;;7.00;7.00;;;;;31.40;36.43;100781.19;5061347;28;45543;-52
2023/09/16 11:00:02;;;;;;;;;8.00;7.00;;;;;31.21;36.80;100780.22;5065183;27;47171;-50
2023/09/16 11:02:31;;;;;;;;;7.00;7.00;;;;;31.09;36.86;100773.66;5083188;27;47013;-49
2023/09/16 11:04:57;;;;;;;;;10.25;8.50;;;;;30.95;37.01;100770.03;5062364;27;45477;-49
2023/09/16 11:07:23;;;;;;;;;9.75;9.75;;;;;30.75;36.88;100775.56;5063790;27;45529;-51
2023/09/16 11:09:50;;;;;;;;;7.25;7.25;;;;;30.43;37.59;100770.66;5090226;27;45494;-51
2023/09/16 11:12:16;;;;;;;;;8.00;7.50;;;;;30.28;38.11;100775.47;5082474;27;46233;-52
2023/09/16 11:14:43;;;;;;;;;8.25;7.75;;;;;30.19;38.22;100777.56;5066500;27;45816;-51
2023/09/16 11:17:15;;;;;;;;;8.00;8.00;;;;;30.10;37.96;100770.59;5081509;27;45485;-49